createdAt,value
2018-09-15T00:01:46.732Z,101597.89
2018-09-15T00:04:15.517Z,101602.55
2018-09-15T00:06:44.105Z,101595.89
2018-09-15T00:09:12.727Z,101597.45
2018-09-15T00:11:41.304Z,101591.03
2018-09-15T00:14:09.896Z,101595.72
2018-09-15T00:16:38.488Z,101593.22
2018-09-15T00:19:07.115Z,101594.81
2018-09-15T00:21:35.702Z,101594.00
2018-09-15T00:24:04.304Z,101591.47
2018-09-15T00:26:32.889Z,101586.75
2018-09-15T00:29:01.520Z,101587.98
2018-09-15T00:31:30.110Z,101589.05
2018-09-15T00:33:58.714Z,101594.66
2018-09-15T00:36:27.298Z,101588.06
2018-09-15T00:38:56.327Z,101588.58
2018-09-15T00:41:24.939Z,101595.27
2018-09-15T00:43:53.571Z,101602.59
2018-09-15T00:46:22.166Z,101596.52
2018-09-15T00:48:50.733Z,101604.22
2018-09-15T00:51:19.320Z,101605.77
2018-09-15T00:53:47.904Z,101606.46
2018-09-15T00:56:16.506Z,101600.80
2018-09-15T00:58:45.136Z,101611.16
2018-09-15T01:01:13.738Z,101621.24
2018-09-15T01:03:42.313Z,101616.98
2018-09-15T01:06:10.907Z,101620.05
2018-09-15T01:08:39.498Z,101620.69
2018-09-15T01:11:08.121Z,101619.61
2018-09-15T01:13:36.714Z,101616.48
2018-09-15T01:16:05.309Z,101621.02
2018-09-15T01:18:33.890Z,101618.09
2018-09-15T01:21:02.492Z,101612.94
2018-09-15T01:23:31.076Z,101616.67
2018-09-15T01:25:59.726Z,101614.76
2018-09-15T01:28:28.297Z,101611.31
2018-09-15T01:30:56.902Z,101610.95
2018-09-15T01:33:25.462Z,101610.60
2018-09-15T01:35:54.055Z,101602.22
2018-09-15T01:38:22.621Z,101611.61
2018-09-15T01:40:51.205Z,101613.46
2018-09-15T01:43:19.778Z,101617.91
2018-09-15T01:45:48.375Z,101616.71
2018-09-15T01:48:16.943Z,101615.54
2018-09-15T01:50:45.518Z,101614.02
2018-09-15T01:53:14.076Z,101615.22
2018-09-15T01:55:42.694Z,101620.22
2018-09-15T01:58:11.294Z,101620.41
2018-09-15T02:00:39.879Z,101618.88
2018-09-15T02:03:08.452Z,101615.66
2018-09-15T02:05:37.059Z,101619.63
2018-09-15T02:08:05.627Z,101614.52
2018-09-15T02:10:34.210Z,101611.80
2018-09-15T02:13:02.782Z,101612.67
2018-09-15T02:15:31.360Z,101615.95
2018-09-15T02:17:59.929Z,101620.20
2018-09-15T02:20:28.534Z,101613.37
2018-09-15T02:22:57.169Z,101607.92
2018-09-15T02:25:25.732Z,101613.70
2018-09-15T02:27:54.297Z,101616.11
2018-09-15T02:30:22.900Z,101619.05
2018-09-15T02:32:51.457Z,101614.27
2018-09-15T02:35:20.049Z,101613.95
2018-09-15T02:37:48.611Z,101617.00
2018-09-15T02:40:17.213Z,101615.31
2018-09-15T02:42:45.768Z,101618.04
2018-09-15T02:45:14.334Z,101618.20
2018-09-15T02:47:43.431Z,101619.56
2018-09-15T02:50:12.003Z,101624.02
2018-09-15T02:52:40.596Z,101614.60
2018-09-15T02:55:09.169Z,101614.96
2018-09-15T02:57:37.763Z,101611.73
2018-09-15T03:00:06.407Z,101615.33
2018-09-15T03:02:34.997Z,101619.80
2018-09-15T03:05:03.591Z,101614.19
2018-09-15T03:07:32.173Z,101606.87
2018-09-15T03:10:00.742Z,101610.14
2018-09-15T03:12:29.322Z,101616.45
2018-09-15T03:14:57.882Z,101615.96
2018-09-15T03:17:26.460Z,101624.14
2018-09-15T03:19:55.125Z,101632.49
2018-09-15T03:22:23.773Z,101627.27
2018-09-15T03:24:52.345Z,101625.56
2018-09-15T03:27:20.943Z,101629.48
2018-09-15T03:29:49.535Z,101636.15
2018-09-15T03:32:18.134Z,101635.80
2018-09-15T03:34:46.710Z,101631.08
2018-09-15T03:37:15.300Z,101629.02
2018-09-15T03:39:43.878Z,101633.30
2018-09-15T03:42:12.466Z,101631.95
2018-09-15T03:44:41.043Z,101630.58
2018-09-15T03:47:09.641Z,101631.44
2018-09-15T03:49:38.209Z,101631.12
2018-09-15T03:52:06.842Z,101628.21
2018-09-15T03:54:35.419Z,101634.68
2018-09-15T03:57:04.016Z,101634.66
2018-09-15T03:59:32.595Z,101628.86
2018-09-15T04:02:01.181Z,101632.59
2018-09-15T04:04:29.753Z,101633.44
2018-09-15T04:06:58.348Z,101632.39
2018-09-15T04:09:26.929Z,101637.17
2018-09-15T04:11:55.524Z,101632.72
2018-09-15T04:14:24.094Z,101631.36
2018-09-15T04:16:52.688Z,101634.77
2018-09-15T04:19:21.262Z,101630.70
2018-09-15T04:21:49.882Z,101635.99
2018-09-15T04:24:18.454Z,101635.48
2018-09-15T04:26:47.053Z,101636.03
2018-09-15T04:29:15.633Z,101642.66
2018-09-15T04:31:44.224Z,101648.10
2018-09-15T04:34:12.786Z,101643.48
2018-09-15T04:36:41.415Z,101636.83
2018-09-15T04:39:11.780Z,101638.33
2018-09-15T04:41:40.849Z,101642.05
2018-09-15T04:44:09.431Z,101636.73
2018-09-15T04:46:38.033Z,101643.66
2018-09-15T04:49:06.758Z,101638.28
2018-09-15T04:51:35.322Z,101648.27
2018-09-15T04:54:03.915Z,101639.64
2018-09-15T04:56:32.476Z,101649.79
2018-09-15T04:59:01.061Z,101651.97
2018-09-15T05:01:29.645Z,101651.12
2018-09-15T05:03:58.219Z,101653.69
2018-09-15T05:06:26.911Z,101655.93
2018-09-15T05:08:55.469Z,101658.88
2018-09-15T05:11:24.031Z,101666.71
2018-09-15T05:13:52.625Z,101663.82
2018-09-15T05:16:21.186Z,101667.53
2018-09-15T05:18:49.769Z,101674.30
2018-09-15T05:21:18.345Z,101672.21
2018-09-15T05:23:46.924Z,101681.86
2018-09-15T05:26:15.506Z,101675.20
2018-09-15T05:28:44.092Z,101673.64
2018-09-15T05:31:12.682Z,101673.95
2018-09-15T05:33:41.291Z,101673.04
2018-09-15T05:36:09.864Z,101674.33
2018-09-15T05:38:38.448Z,101669.98
2018-09-15T05:41:07.016Z,101676.21
2018-09-15T05:43:35.599Z,101675.73
2018-09-15T05:46:04.160Z,101680.23
2018-09-15T05:48:32.756Z,101683.40
2018-09-15T05:51:01.327Z,101682.30
2018-09-15T05:53:29.948Z,101679.67
2018-09-15T05:55:58.557Z,101695.39
2018-09-15T05:58:27.203Z,101693.54
2018-09-15T06:00:55.841Z,101691.17
2018-09-15T06:03:24.487Z,101696.48
2018-09-15T06:05:53.124Z,101696.87
2018-09-15T06:08:21.766Z,101703.39
2018-09-15T06:10:50.358Z,101700.86
2018-09-15T06:13:18.936Z,101710.97
2018-09-15T06:15:47.519Z,101709.27
2018-09-15T06:18:16.131Z,101717.77
2018-09-15T06:20:44.749Z,101711.17
2018-09-15T06:23:13.356Z,101712.16
2018-09-15T06:25:41.922Z,101714.76
2018-09-15T06:28:10.537Z,101718.16
2018-09-15T06:30:39.130Z,101715.72
2018-09-15T06:33:07.724Z,101708.88
2018-09-15T06:35:36.358Z,101713.17
2018-09-15T06:38:04.964Z,101710.64
2018-09-15T06:40:33.533Z,101711.20
2018-09-15T06:43:02.123Z,101710.86
2018-09-15T06:45:30.785Z,101715.52
2018-09-15T06:47:59.362Z,101728.44
2018-09-15T06:50:27.954Z,101718.91
2018-09-15T06:52:56.536Z,101731.80
2018-09-15T06:55:25.132Z,101737.65
2018-09-15T06:57:53.690Z,101739.59
2018-09-15T07:00:22.307Z,101743.77
2018-09-15T07:02:50.901Z,101744.94
2018-09-15T07:05:19.603Z,101744.66
2018-09-15T07:07:48.187Z,101748.08
2018-09-15T07:10:16.831Z,101746.59
2018-09-15T07:12:45.401Z,101759.39
2018-09-15T07:15:14.007Z,101762.78
2018-09-15T07:17:42.569Z,101759.37
2018-09-15T07:20:11.185Z,101765.41
2018-09-15T07:22:39.760Z,101769.55
2018-09-15T07:25:08.360Z,101780.24
2018-09-15T07:27:36.955Z,101775.36
2018-09-15T07:30:05.633Z,101786.93
2018-09-15T07:32:34.198Z,101784.94
2018-09-15T07:35:02.778Z,101785.77
2018-09-15T07:37:31.393Z,101781.66
2018-09-15T07:40:00.015Z,101788.16
2018-09-15T07:42:28.573Z,101784.16
2018-09-15T07:44:57.153Z,101795.19
2018-09-15T07:47:25.712Z,101791.39
2018-09-15T07:49:54.264Z,101792.22
2018-09-15T07:52:23.321Z,101790.95
2018-09-15T07:54:51.914Z,101793.59
2018-09-15T07:57:20.539Z,101789.54
2018-09-15T07:59:49.128Z,101794.74
2018-09-15T08:02:20.026Z,101798.95
2018-09-15T08:04:49.120Z,101793.63
2018-09-15T08:07:17.801Z,101791.38
2018-09-15T08:09:47.153Z,101792.08
2018-09-15T08:12:16.542Z,101794.45
2018-09-15T08:14:45.118Z,101803.21
2018-09-15T08:17:13.665Z,101796.64
2018-09-15T08:19:42.265Z,101804.61
2018-09-15T08:22:10.833Z,101797.63
2018-09-15T08:24:39.426Z,101784.84
2018-09-15T08:27:08.360Z,101789.61
2018-09-15T08:29:36.970Z,101792.99
2018-09-15T08:32:05.592Z,101789.02
2018-09-15T08:34:34.164Z,101793.16
2018-09-15T08:37:02.745Z,101791.66
2018-09-15T08:39:31.317Z,101787.64
2018-09-15T08:41:59.881Z,101790.25
2018-09-15T08:44:28.461Z,101794.00
2018-09-15T08:46:57.014Z,101792.72
2018-09-15T08:49:25.586Z,101799.09
2018-09-15T08:51:54.159Z,101795.61
2018-09-15T08:54:22.748Z,101796.43
2018-09-15T08:56:51.313Z,101794.81
2018-09-15T08:59:19.888Z,101798.55
2018-09-15T09:01:48.480Z,101795.62
2018-09-15T09:04:17.056Z,101802.12
2018-09-15T09:06:45.650Z,101808.78
2018-09-15T09:09:14.216Z,101810.63
2018-09-15T09:11:42.820Z,101810.96
2018-09-15T09:14:11.387Z,101813.91
2018-09-15T09:16:39.965Z,101821.81
2018-09-15T09:19:08.530Z,101815.11
2018-09-15T09:21:37.123Z,101811.48
2018-09-15T09:24:05.682Z,101814.57
2018-09-15T09:26:34.321Z,101821.03
2018-09-15T09:29:02.902Z,101818.62
2018-09-15T09:31:31.485Z,101810.86
2018-09-15T09:34:00.125Z,101819.92
2018-09-15T09:36:28.729Z,101825.75
2018-09-15T09:38:57.308Z,101814.11
2018-09-15T09:41:25.927Z,101824.25
2018-09-15T09:43:54.492Z,101822.70
2018-09-15T09:46:23.086Z,101825.86
2018-09-15T09:48:51.682Z,101820.63
2018-09-15T09:51:20.276Z,101823.25
2018-09-15T09:53:48.860Z,101819.81
2018-09-15T09:56:17.466Z,101828.69
2018-09-15T09:58:46.049Z,101824.17
2018-09-15T10:01:20.066Z,101832.92
2018-09-15T10:03:48.649Z,101836.42
2018-09-15T10:06:17.319Z,101837.20
2018-09-15T10:08:45.873Z,101826.75
2018-09-15T10:11:14.518Z,101832.22
2018-09-15T10:13:43.088Z,101845.94
2018-09-15T10:16:11.707Z,101839.06
2018-09-15T10:18:40.305Z,101837.47
2018-09-15T10:21:08.908Z,101831.66
2018-09-15T10:23:37.563Z,101833.10
2018-09-15T10:26:06.172Z,101836.45
2018-09-15T10:28:34.772Z,101826.03
2018-09-15T10:31:03.401Z,101833.04
2018-09-15T10:33:31.988Z,101827.47
2018-09-15T10:36:00.586Z,101822.56
2018-09-15T10:38:29.219Z,101822.64
2018-09-15T10:40:57.791Z,101823.58
2018-09-15T10:43:26.381Z,101820.77
2018-09-15T10:45:55.034Z,101813.39
2018-09-15T10:48:23.618Z,101800.73
2018-09-15T10:50:52.201Z,101816.78
2018-09-15T10:53:20.772Z,101828.69
2018-09-15T10:55:49.410Z,101819.06
2018-09-15T10:58:18.011Z,101819.83
2018-09-15T11:00:46.691Z,101822.97
2018-09-15T11:03:15.235Z,101827.65
2018-09-15T11:05:43.827Z,101827.11
2018-09-15T11:08:12.442Z,101824.45
2018-09-15T11:10:41.016Z,101823.14
2018-09-15T11:13:09.662Z,101829.84
2018-09-15T11:15:38.241Z,101843.98
2018-09-15T11:18:06.885Z,101849.03
2018-09-15T11:20:35.457Z,101846.44
2018-09-15T11:23:04.068Z,101844.55
2018-09-15T11:25:32.631Z,101845.03
2018-09-15T11:28:01.250Z,101837.63
2018-09-15T11:30:29.852Z,101835.40
2018-09-15T11:32:58.488Z,101844.08
2018-09-15T11:35:27.080Z,101845.12
2018-09-15T11:37:55.713Z,101844.99
2018-09-15T11:40:24.282Z,101847.30
2018-09-15T11:42:52.988Z,101847.84
2018-09-15T11:45:21.567Z,101850.48
2018-09-15T11:47:50.202Z,101855.97
2018-09-15T11:50:18.777Z,101850.11
2018-09-15T11:52:48.127Z,101863.52
2018-09-15T11:55:17.026Z,101858.30
2018-09-15T11:57:45.634Z,101855.73
2018-09-15T12:00:16.380Z,101855.52
2018-09-15T12:02:45.014Z,101848.61
2018-09-15T12:05:13.594Z,101843.83
2018-09-15T12:07:42.227Z,101844.05
2018-09-15T12:10:10.826Z,101845.79
2018-09-15T12:12:39.432Z,101845.02
2018-09-15T12:15:08.030Z,101843.85
2018-09-15T12:17:36.657Z,101845.51
2018-09-15T12:20:05.257Z,101838.39
2018-09-15T12:22:33.836Z,101836.27
2018-09-15T12:25:02.425Z,101842.22
2018-09-15T12:27:31.021Z,101835.59
2018-09-15T12:29:59.596Z,101839.66
2018-09-15T12:32:28.194Z,101837.50
2018-09-15T12:34:56.767Z,101838.98
2018-09-15T12:37:25.354Z,101850.11
2018-09-15T12:39:53.931Z,101832.84
2018-09-15T12:42:22.514Z,101835.09
2018-09-15T12:44:51.122Z,101840.03
2018-09-15T12:47:19.737Z,101831.83
2018-09-15T12:49:48.313Z,101844.28
2018-09-15T12:52:17.801Z,101848.66
2018-09-15T12:54:46.348Z,101852.77
2018-09-15T12:57:14.984Z,101849.08
2018-09-15T12:59:43.552Z,101855.97
2018-09-15T13:02:12.163Z,101852.00
2018-09-15T13:04:40.737Z,101853.17
2018-09-15T13:07:09.321Z,101850.53
2018-09-15T13:09:37.945Z,101881.62
2018-09-15T13:12:06.601Z,101886.59
2018-09-15T13:14:35.189Z,101867.20
2018-09-15T13:17:03.772Z,101889.48
2018-09-15T13:19:32.374Z,101896.34
2018-09-15T13:22:00.949Z,101893.34
2018-09-15T13:24:29.557Z,101897.59
2018-09-15T13:26:58.128Z,101904.03
2018-09-15T13:29:26.797Z,101899.02
2018-09-15T13:31:55.406Z,101912.27
2018-09-15T13:34:23.998Z,101911.73
2018-09-15T13:36:52.581Z,101922.78
2018-09-15T13:39:21.170Z,101926.20
2018-09-15T13:41:49.752Z,101922.63
2018-09-15T13:44:18.355Z,101929.98
2018-09-15T13:46:46.943Z,101933.61
2018-09-15T13:49:15.556Z,101933.67
2018-09-15T13:51:44.125Z,101941.42
2018-09-15T13:54:12.725Z,101946.64
2018-09-15T13:56:41.288Z,101945.19
2018-09-15T13:59:09.894Z,101948.91
2018-09-15T14:01:38.457Z,101950.70
2018-09-15T14:04:07.322Z,101957.88
2018-09-15T14:06:35.889Z,101957.56
2018-09-15T14:09:05.858Z,101956.02
2018-09-15T14:11:34.425Z,101958.13
2018-09-15T14:14:03.055Z,101959.47
2018-09-15T14:16:31.655Z,101960.95
2018-09-15T14:19:00.285Z,101967.51
2018-09-15T14:21:28.883Z,101962.56
2018-09-15T14:23:57.480Z,101968.20
2018-09-15T14:26:26.045Z,101973.06
2018-09-15T14:28:54.658Z,101972.22
2018-09-15T14:31:23.226Z,101973.17
2018-09-15T14:33:51.805Z,101967.56
2018-09-15T14:36:20.373Z,101978.53
2018-09-15T14:38:49.012Z,101996.52
2018-09-15T14:41:17.593Z,102000.84
2018-09-15T14:43:46.577Z,101997.56
2018-09-15T14:46:15.154Z,102013.06
2018-09-15T14:48:43.732Z,102022.79
2018-09-15T14:51:12.326Z,102022.59
2018-09-15T14:53:40.949Z,102022.53
2018-09-15T14:56:10.102Z,102022.84
2018-09-15T14:58:38.699Z,102014.77
2018-09-15T15:01:07.314Z,102015.65
2018-09-15T15:03:35.978Z,102012.68
2018-09-15T15:06:04.610Z,102012.02
2018-09-15T15:08:33.235Z,102011.09
2018-09-15T15:11:01.796Z,102025.19
2018-09-15T15:13:30.403Z,102030.92
2018-09-15T15:15:58.987Z,102028.83
2018-09-15T15:18:27.550Z,102031.68
2018-09-15T15:20:56.146Z,102021.50
2018-09-15T15:23:24.723Z,102015.52
2018-09-15T15:25:53.316Z,102003.36
2018-09-15T15:28:21.886Z,102010.72
2018-09-15T15:30:50.478Z,102013.02
2018-09-15T15:33:19.037Z,102013.70
2018-09-15T15:35:47.629Z,102018.30
2018-09-15T15:38:16.194Z,102017.55
2018-09-15T15:40:44.858Z,102023.48
2018-09-15T15:43:13.393Z,102021.16
2018-09-15T15:45:41.990Z,102022.55
2018-09-15T15:48:10.582Z,102026.05
2018-09-15T15:50:39.178Z,102026.55
2018-09-15T15:53:07.757Z,102024.79
2018-09-15T15:55:36.397Z,102023.13
2018-09-15T15:58:04.954Z,102026.40
2018-09-15T16:00:33.561Z,102020.39
2018-09-15T16:03:02.135Z,102020.19
2018-09-15T16:05:30.726Z,102021.08
2018-09-15T16:07:59.305Z,102020.41
2018-09-15T16:10:27.908Z,102025.38
2018-09-15T16:12:56.472Z,102011.91
2018-09-15T16:15:25.072Z,102015.38
2018-09-15T16:17:53.630Z,102023.02
2018-09-15T16:20:22.222Z,102018.67
2018-09-15T16:22:50.802Z,102026.50
2018-09-15T16:25:19.378Z,102032.64
2018-09-15T16:27:47.955Z,102035.15
2018-09-15T16:30:16.556Z,102026.55
2018-09-15T16:32:45.146Z,102033.31
2018-09-15T16:35:13.759Z,102039.00
2018-09-15T16:37:42.335Z,102028.15
2018-09-15T16:40:10.933Z,102035.09
2018-09-15T16:42:39.547Z,102043.34
2018-09-15T16:45:08.136Z,102048.05
2018-09-15T16:47:36.737Z,102045.73
2018-09-15T16:50:05.384Z,102041.47
2018-09-15T16:52:33.957Z,102042.19
2018-09-15T16:55:02.572Z,102047.59
2018-09-15T16:57:31.147Z,102037.58
2018-09-15T16:59:59.742Z,102042.50
2018-09-15T17:02:28.312Z,102037.80
2018-09-15T17:04:56.895Z,102044.62
2018-09-15T17:07:25.480Z,102039.28
2018-09-15T17:09:54.106Z,102043.70
2018-09-15T17:12:22.703Z,102042.45
2018-09-15T17:14:51.283Z,102044.50
2018-09-15T17:17:19.884Z,102040.00
2018-09-15T17:19:48.499Z,102043.61
2018-09-15T17:22:17.125Z,102051.15
2018-09-15T17:24:45.698Z,102055.06
2018-09-15T17:27:14.302Z,102062.97
2018-09-15T17:29:42.871Z,102060.36
2018-09-15T17:32:11.447Z,102062.71
2018-09-15T17:34:40.005Z,102058.51
2018-09-15T17:37:08.620Z,102060.13
2018-09-15T17:39:37.219Z,102067.19
2018-09-15T17:42:06.129Z,102061.77
2018-09-15T17:44:34.697Z,102064.86
2018-09-15T17:47:03.300Z,102075.95
2018-09-15T17:49:31.841Z,102075.34
2018-09-15T17:52:00.432Z,102083.80
2018-09-15T17:54:28.975Z,102087.44
2018-09-15T17:56:57.561Z,102085.62
2018-09-15T17:59:26.127Z,102082.73
2018-09-15T18:01:54.790Z,102087.91
2018-09-15T18:04:23.345Z,102095.45
2018-09-15T18:06:51.975Z,102094.09
2018-09-15T18:09:20.563Z,102096.83
2018-09-15T18:11:49.161Z,102094.35
2018-09-15T18:14:17.731Z,102097.72
2018-09-15T18:16:46.322Z,102095.59
2018-09-15T18:19:14.885Z,102096.39
2018-09-15T18:21:43.473Z,102100.97
2018-09-15T18:24:12.036Z,102104.50
2018-09-15T18:26:40.624Z,102106.20
2018-09-15T18:29:09.222Z,102114.26
2018-09-15T18:31:37.809Z,102120.42
2018-09-15T18:34:06.375Z,102133.77
2018-09-15T18:36:35.070Z,102132.69
2018-09-15T18:39:04.036Z,102131.64
2018-09-15T18:41:32.616Z,102131.11
2018-09-15T18:44:01.175Z,102140.72
2018-09-15T18:46:29.755Z,102141.56
2018-09-15T18:48:58.319Z,102134.91
2018-09-15T18:51:26.904Z,102138.55
2018-09-15T18:53:55.539Z,102154.05
2018-09-15T18:56:24.310Z,102148.52
2018-09-15T18:58:52.865Z,102143.69
2018-09-15T19:01:21.463Z,102143.46
2018-09-15T19:03:50.028Z,102151.63
2018-09-15T19:06:18.613Z,102168.70
2018-09-15T19:08:47.171Z,102162.63
2018-09-15T19:11:15.775Z,102164.09
2018-09-15T19:13:44.343Z,102166.19
2018-09-15T19:16:12.918Z,102166.07
2018-09-15T19:18:41.509Z,102166.99
2018-09-15T19:21:10.144Z,102167.69
2018-09-15T19:23:38.716Z,102178.31
2018-09-15T19:26:07.291Z,102181.39
2018-09-15T19:28:35.878Z,102182.06
2018-09-15T19:31:04.515Z,102187.02
2018-09-15T19:33:33.107Z,102185.33
2018-09-15T19:36:01.657Z,102193.75
2018-09-15T19:38:30.276Z,102192.42
2018-09-15T19:40:58.825Z,102184.92
2018-09-15T19:43:27.413Z,102180.16
2018-09-15T19:45:55.979Z,102184.69
2018-09-15T19:48:24.561Z,102183.91
2018-09-15T19:50:53.121Z,102187.03
2018-09-15T19:53:21.697Z,102189.77
2018-09-15T19:55:50.254Z,102194.88
2018-09-15T19:58:18.849Z,102193.71
2018-09-15T20:00:47.462Z,102195.13
2018-09-15T20:03:16.031Z,102197.91
2018-09-15T20:05:44.586Z,102204.98
2018-09-15T20:08:13.156Z,102200.42
2018-09-15T20:10:41.715Z,102204.73
2018-09-15T20:13:10.305Z,102201.49
2018-09-15T20:15:37.681Z,102201.50
2018-09-15T20:18:05.083Z,102202.53
2018-09-15T20:20:32.462Z,102200.65
2018-09-15T20:23:01.079Z,102198.78
2018-09-15T20:25:29.649Z,102192.47
2018-09-15T20:27:58.230Z,102198.82
2018-09-15T20:30:26.829Z,102202.09
2018-09-15T20:32:55.442Z,102203.13
2018-09-15T20:35:24.038Z,102199.39
2018-09-15T20:37:52.621Z,102205.72
2018-09-15T20:40:21.238Z,102203.34
2018-09-15T20:42:49.828Z,102207.08
2018-09-15T20:45:18.404Z,102216.13
2018-09-15T20:47:46.978Z,102219.50
2018-09-15T20:50:15.552Z,102217.98
2018-09-15T20:52:44.233Z,102218.45
2018-09-15T20:55:12.782Z,102225.28
2018-09-15T20:57:41.381Z,102228.20
2018-09-15T21:00:10.760Z,102225.09
2018-09-15T21:02:39.589Z,102228.19
2018-09-15T21:05:08.190Z,102232.95
2018-09-15T21:07:36.784Z,102236.38
2018-09-15T21:10:05.738Z,102239.06
2018-09-15T21:12:34.365Z,102237.70
2018-09-15T21:15:02.990Z,102238.92
2018-09-15T21:17:31.572Z,102239.77
2018-09-15T21:20:00.221Z,102247.45
2018-09-15T21:22:28.775Z,102243.69
2018-09-15T21:24:57.378Z,102249.31
2018-09-15T21:27:25.943Z,102250.48
2018-09-15T21:29:54.557Z,102247.41
2018-09-15T21:32:23.146Z,102247.20
2018-09-15T21:34:51.763Z,102254.02
2018-09-15T21:37:20.345Z,102251.10
2018-09-15T21:39:48.930Z,102253.11
2018-09-15T21:42:17.501Z,102249.52
2018-09-15T21:44:46.099Z,102247.80
2018-09-15T21:47:14.669Z,102250.00
2018-09-15T21:49:43.261Z,102247.08
2018-09-15T21:52:11.845Z,102252.64
2018-09-15T21:54:40.442Z,102244.41
2018-09-15T21:57:09.015Z,102247.23
2018-09-15T21:59:37.618Z,102247.22
2018-09-15T22:02:06.225Z,102246.22
2018-09-15T22:04:34.825Z,102247.61
2018-09-15T22:07:03.449Z,102248.28
2018-09-15T22:09:32.119Z,102245.52
2018-09-15T22:12:00.673Z,102249.70
2018-09-15T22:14:29.270Z,102255.61
2018-09-15T22:16:57.962Z,102256.22
2018-09-15T22:19:26.576Z,102257.86
2018-09-15T22:21:55.177Z,102262.59
2018-09-15T22:24:23.788Z,102255.45
2018-09-15T22:26:52.378Z,102261.80
2018-09-15T22:29:20.994Z,102265.07
2018-09-15T22:31:49.564Z,102267.08
2018-09-15T22:34:18.177Z,102273.50
2018-09-15T22:36:46.748Z,102272.31
2018-09-15T22:39:15.338Z,102269.69
2018-09-15T22:41:43.895Z,102269.55
2018-09-15T22:44:12.477Z,102272.45
2018-09-15T22:46:41.040Z,102274.32
2018-09-15T22:49:09.624Z,102266.91
2018-09-15T22:51:38.217Z,102273.13
2018-09-15T22:54:06.833Z,102271.70
2018-09-15T22:56:35.409Z,102272.45
2018-09-15T22:59:04.005Z,102275.54
2018-09-15T23:01:32.564Z,102278.57
2018-09-15T23:04:09.420Z,102274.42
2018-09-15T23:06:37.982Z,102281.67
2018-09-15T23:09:08.711Z,102277.22
2018-09-15T23:11:37.277Z,102280.79
2018-09-15T23:14:05.842Z,102282.05
2018-09-15T23:16:34.435Z,102274.59
2018-09-15T23:19:03.032Z,102269.63
2018-09-15T23:21:31.679Z,102277.48
2018-09-15T23:24:00.344Z,102280.75
2018-09-15T23:26:28.951Z,102276.36
2018-09-15T23:28:57.515Z,102274.89
2018-09-15T23:31:26.152Z,102275.91
2018-09-15T23:33:54.724Z,102281.77
2018-09-15T23:36:23.324Z,102277.50
2018-09-15T23:38:51.909Z,102274.98
2018-09-15T23:41:20.514Z,102272.59
2018-09-15T23:43:49.102Z,102280.42
2018-09-15T23:46:17.744Z,102281.05
2018-09-15T23:48:46.342Z,102274.20
2018-09-15T23:51:14.947Z,102278.61
2018-09-15T23:53:43.534Z,102275.00
2018-09-15T23:56:12.114Z,102270.70
2018-09-15T23:58:40.688Z,102269.00
